CheckWX is a tool to help pilots better visualize weather data.  It is not intended as a substitute for an official pre-flight weather briefing.

05:43:44 UTC

KBKL METAR
Burke Lakefront Airport
Cleveland, Ohio, USA
Current

51 mins ago

KBKL 250453Z AUTO 25004KT 10SM OVC055 06/03 A3007 RMK AO2 SLP186 T00610033 401170011
Observed
Mar-25 @ 04:53 UTC
Wind
  • 250° at 4 KTS
Visibility
10 SM
Flight Rules
VFR
Cloud Levels
  • Overcast at 5,500' AGL
Temperature
C / 43°F
Dewpoint
C / 37°F
Humidity
81%
Altimeter
30.07" Hg
Pressure
1018.6 hPa
Previous

2 hours ago

KBKL 250353Z 21006KT 10SM BKN060 OVC080 07/03 A3007 RMK AO2 SLP186 T00720033
Observed
Mar-25 @ 03:53 UTC
Wind
  • 210° at 6 KTS
Visibility
10 SM
Flight Rules
VFR
Cloud Levels
  • Broken at 6,000' AGL
  • Overcast at 8,000' AGL
Temperature
C / 45°F
Dewpoint
C / 37°F
Humidity
76%
Altimeter
30.07" Hg
Pressure
1018.6 hPa
Previous

3 hours ago

KBKL 250253Z 18006KT 10SM FEW045 OVC060 09/03 A3008 RMK AO2 SLP189 T00890033 58001
Observed
Mar-25 @ 02:53 UTC
Wind
  • 180° at 6 KTS
Visibility
10 SM
Flight Rules
VFR
Cloud Levels
  • Few at 4,500' AGL
  • Overcast at 6,000' AGL
Temperature
C / 48°F
Dewpoint
C / 37°F
Humidity
66%
Altimeter
30.08" Hg
Pressure
1018.9 hPa